Accueil
Images satellite Prévisions 15 joursClimatMétéo marine Cyclones Foudre AéroportsFAQ Actualités A propos
Météo : Europe Afrique Amérique du Nord Amérique du Sud Asie Australie-Océanie Autres
Langues Contact

Biarritz, France

Anglet

latitude: 43-28N, longitude: 001-32W, altitude: 75 m


METAR: LFBZ 231630Z 08004KT CAVOK 18/04 Q1022 NOSIG
TAF: LFBZ 231100Z 2312/2412 10006KT CAVOK

Heure: 19:08 (17:08 UTC)

Observation

Le bulletin a été fait il y a 38 minutes, à 16:30 UTC
Vent 4 kt de est
Température 18°C
Humidité 39%
Pression 1022 hPa
Visibilité 10 km ou plus
pas de nuages en-dessous de 1500 mètres et pas de cumulonimbus.

Changer d'unités

Prévision

Le bulletin a été fait il y a 6 heures et 8 minutes, à 11:00 UTC
Prévision valable du 23 à 12 UTC au 24 à 12 UTC
Vent 6 kt de est
Visibilité 10 km ou plus
pas de nuages en-dessous de 1500 mètres et pas de cumulonimbus.
Les informations qui figurent sur ce site font l'objet d'une clause de non-responsabilité
Météo : Europe Afrique Amérique du Nord Amérique du Sud Asie Australie-Océanie Autres
Images satellite Prévisions 15 joursClimatMétéo marine Cyclones Foudre AéroportsFAQ Langues Contact Actualités A propos